createdAt,value
2017-07-05T00:01:27.923Z,67.91
2017-07-05T00:03:58.454Z,69.07
2017-07-05T00:06:28.928Z,68.63
2017-07-05T00:08:58.611Z,68.47
2017-07-05T00:11:28.288Z,69.02
2017-07-05T00:13:58.039Z,68.33
2017-07-05T00:16:27.692Z,69.53
2017-07-05T00:18:57.486Z,70.00
2017-07-05T00:21:27.199Z,69.05
2017-07-05T00:23:57.098Z,68.96
2017-07-05T00:26:26.797Z,69.44
2017-07-05T00:28:56.537Z,69.37
2017-07-05T00:31:26.288Z,70.14
2017-07-05T00:33:55.945Z,69.81
2017-07-05T00:36:25.672Z,69.85
2017-07-05T00:38:55.386Z,70.58
2017-07-05T00:41:25.043Z,69.52
2017-07-05T00:43:54.749Z,69.32
2017-07-05T00:46:24.460Z,70.89
2017-07-05T00:48:54.143Z,70.94
2017-07-05T00:51:24.570Z,69.66
2017-07-05T00:53:54.987Z,69.62
2017-07-05T00:56:24.689Z,70.44
2017-07-05T00:58:55.106Z,71.01
2017-07-05T01:01:24.914Z,70.83
2017-07-05T01:03:54.593Z,71.44
2017-07-05T01:06:24.259Z,71.51
2017-07-05T01:08:53.945Z,71.84
2017-07-05T01:11:23.613Z,72.08
2017-07-05T01:13:53.302Z,71.16
2017-07-05T01:16:23.064Z,71.49
2017-07-05T01:18:52.718Z,71.69
2017-07-05T01:21:23.056Z,72.25
2017-07-05T01:23:52.798Z,72.55
2017-07-05T01:26:25.533Z,73.32
2017-07-05T01:28:55.202Z,73.28
2017-07-05T01:31:25.567Z,73.39
2017-07-05T01:33:55.254Z,74.12
2017-07-05T01:36:25.073Z,74.39
2017-07-05T01:38:54.790Z,74.78
2017-07-05T01:41:25.548Z,74.70
2017-07-05T01:43:54.708Z,74.67
2017-07-05T01:46:24.405Z,74.32
2017-07-05T01:48:54.277Z,74.57
2017-07-05T01:51:23.591Z,74.41
2017-07-05T01:53:53.875Z,74.61
2017-07-05T01:56:22.859Z,74.40
2017-07-05T01:58:53.135Z,74.51
2017-07-05T02:01:22.836Z,75.14
2017-07-05T02:03:52.499Z,74.71
2017-07-05T02:06:22.835Z,74.37
2017-07-05T02:08:52.555Z,74.75
2017-07-05T02:11:22.480Z,74.78
2017-07-05T02:13:52.199Z,75.30
2017-07-05T02:16:22.002Z,75.10
2017-07-05T02:18:51.711Z,75.79
2017-07-05T02:21:21.437Z,75.92
2017-07-05T02:23:51.121Z,75.61
2017-07-05T02:26:20.850Z,75.51
2017-07-05T02:28:50.557Z,75.61
2017-07-05T02:31:20.475Z,74.93
2017-07-05T02:33:50.169Z,74.62
2017-07-05T02:36:19.475Z,75.13
2017-07-05T02:38:49.214Z,75.11
2017-07-05T02:41:18.930Z,75.08
2017-07-05T02:43:48.668Z,75.22
2017-07-05T02:46:18.358Z,75.91
2017-07-05T02:48:48.039Z,76.10
2017-07-05T02:51:17.785Z,75.54
2017-07-05T02:53:47.482Z,75.75
2017-07-05T02:56:17.156Z,74.91
2017-07-05T02:58:46.846Z,74.48
2017-07-05T03:01:16.558Z,74.61
2017-07-05T03:03:46.263Z,75.61
2017-07-05T03:06:19.956Z,75.06
2017-07-05T03:08:53.253Z,75.87
2017-07-05T03:11:23.590Z,75.61
2017-07-05T03:13:53.295Z,75.90
2017-07-05T03:16:23.411Z,75.75
2017-07-05T03:18:53.080Z,75.76
2017-07-05T03:21:22.743Z,75.86
2017-07-05T03:23:52.480Z,76.20
2017-07-05T03:26:22.223Z,76.18
2017-07-05T03:28:52.027Z,76.18
2017-07-05T03:31:24.263Z,76.29
2017-07-05T03:33:54.131Z,75.95
2017-07-05T03:36:24.524Z,75.70
2017-07-05T03:38:54.207Z,75.62
2017-07-05T03:41:23.897Z,76.32
2017-07-05T03:43:53.636Z,76.14
2017-07-05T03:46:23.401Z,75.33
2017-07-05T03:48:53.086Z,75.34
2017-07-05T03:51:22.768Z,75.64
2017-07-05T03:53:52.453Z,76.41
2017-07-05T03:56:22.875Z,75.98
2017-07-05T03:58:52.482Z,76.35
2017-07-05T04:01:22.122Z,76.31
2017-07-05T04:03:51.771Z,76.61
2017-07-05T04:06:21.447Z,76.67
2017-07-05T04:08:51.176Z,75.22
2017-07-05T04:11:21.096Z,75.20
2017-07-05T04:13:50.799Z,75.01
2017-07-05T04:16:21.029Z,74.19
2017-07-05T04:18:50.711Z,75.04
2017-07-05T04:21:21.131Z,75.25
2017-07-05T04:23:50.850Z,76.21
2017-07-05T04:26:20.493Z,76.08
2017-07-05T04:28:50.859Z,76.26
2017-07-05T04:31:20.530Z,76.83
2017-07-05T04:33:50.287Z,75.84
2017-07-05T04:36:20.099Z,75.72
2017-07-05T04:38:49.738Z,75.50
2017-07-05T04:41:19.578Z,74.70
2017-07-05T04:43:50.019Z,74.07
2017-07-05T04:46:19.773Z,74.37
2017-07-05T04:48:49.511Z,73.82
2017-07-05T04:51:19.159Z,74.31
2017-07-05T04:53:50.346Z,75.24
2017-07-05T04:56:19.999Z,75.15
2017-07-05T04:58:49.792Z,74.17
2017-07-05T05:01:19.515Z,72.37
2017-07-05T05:03:49.266Z,71.54
2017-07-05T05:06:18.963Z,70.97
2017-07-05T05:08:48.607Z,70.78
2017-07-05T05:11:18.335Z,69.03
2017-07-05T05:13:48.038Z,68.40
2017-07-05T05:16:17.750Z,68.52
2017-07-05T05:18:47.510Z,68.91
2017-07-05T05:21:17.179Z,69.23
2017-07-05T05:23:47.702Z,69.88
2017-07-05T05:26:17.363Z,70.88
2017-07-05T05:28:47.014Z,71.44
2017-07-05T05:31:16.786Z,72.77
2017-07-05T05:33:46.437Z,72.13
2017-07-05T05:36:16.450Z,69.85
2017-07-05T05:38:46.227Z,69.40
2017-07-05T05:41:15.900Z,67.71
2017-07-05T05:43:55.261Z,68.51
2017-07-05T05:46:28.690Z,68.12
2017-07-05T05:48:59.189Z,69.59
2017-07-05T05:51:28.827Z,68.88
2017-07-05T05:53:59.305Z,69.45
2017-07-05T05:56:29.047Z,69.54
2017-07-05T05:58:58.751Z,67.66
2017-07-05T06:01:28.255Z,67.04
2017-07-05T06:03:58.037Z,66.79
2017-07-05T06:06:27.764Z,66.65
2017-07-05T06:08:57.539Z,68.25
2017-07-05T06:11:27.199Z,69.27
2017-07-05T06:13:56.851Z,69.54
2017-07-05T06:16:26.552Z,67.83
2017-07-05T06:18:56.223Z,67.45
2017-07-05T06:21:26.213Z,67.84
2017-07-05T06:23:56.065Z,67.30
2017-07-05T06:26:25.891Z,68.09
2017-07-05T06:28:55.748Z,67.52
2017-07-05T06:31:25.460Z,67.18
2017-07-05T06:33:55.163Z,66.63
2017-07-05T06:36:24.878Z,66.44
2017-07-05T06:38:54.743Z,66.72
2017-07-05T06:41:24.413Z,69.28
2017-07-05T06:43:54.068Z,69.13
2017-07-05T06:46:23.751Z,69.77
2017-07-05T06:48:53.447Z,69.76
2017-07-05T06:51:23.113Z,70.24
2017-07-05T06:53:52.870Z,72.50
2017-07-05T06:56:22.521Z,72.27
2017-07-05T06:58:52.206Z,72.73
2017-07-05T07:01:21.953Z,71.61
2017-07-05T07:03:51.691Z,70.81
2017-07-05T07:06:22.031Z,64.32
2017-07-05T07:08:52.407Z,65.35
2017-07-05T07:11:22.142Z,63.81
2017-07-05T07:13:52.475Z,65.01
2017-07-05T07:16:22.806Z,64.43
2017-07-05T07:18:56.313Z,64.52
2017-07-05T07:21:31.044Z,64.33
2017-07-05T07:24:01.344Z,65.46
2017-07-05T07:26:31.137Z,65.77
2017-07-05T07:29:00.801Z,66.28
2017-07-05T07:31:31.147Z,65.97
2017-07-05T07:34:01.438Z,63.81
2017-07-05T07:36:31.130Z,64.55
2017-07-05T07:39:00.837Z,63.45
2017-07-05T07:41:30.491Z,64.09
2017-07-05T07:44:00.170Z,64.21
2017-07-05T07:46:29.847Z,63.48
2017-07-05T07:48:59.511Z,63.59
2017-07-05T07:51:29.233Z,62.64
2017-07-05T07:53:58.895Z,62.71
2017-07-05T07:56:28.610Z,62.86
2017-07-05T07:58:58.214Z,63.72
2017-07-05T08:01:27.878Z,62.36
2017-07-05T08:03:57.658Z,61.88
2017-07-05T08:06:27.850Z,61.30
2017-07-05T08:08:57.676Z,60.74
2017-07-05T08:11:27.350Z,60.35
2017-07-05T08:13:57.036Z,58.57
2017-07-05T08:16:26.736Z,58.66
2017-07-05T08:18:56.414Z,57.84
2017-07-05T08:21:30.867Z,56.87
2017-07-05T08:24:03.860Z,56.36
2017-07-05T08:26:33.569Z,57.06
2017-07-05T08:29:03.229Z,56.56
2017-07-05T08:31:32.901Z,56.48
2017-07-05T08:34:02.595Z,55.66
2017-07-05T08:36:32.308Z,55.12
2017-07-05T08:39:02.088Z,55.44
2017-07-05T08:41:31.762Z,55.74
2017-07-05T08:44:01.456Z,55.46
2017-07-05T08:46:34.039Z,54.80
2017-07-05T08:49:04.915Z,55.35
2017-07-05T08:51:34.624Z,54.46
2017-07-05T08:54:04.299Z,54.46
2017-07-05T08:56:34.014Z,54.82
2017-07-05T08:59:03.939Z,53.33
2017-07-05T09:01:33.681Z,52.95
2017-07-05T09:04:03.471Z,52.71
2017-07-05T09:06:33.143Z,52.80
2017-07-05T09:09:02.794Z,50.10
2017-07-05T09:11:32.498Z,51.26
2017-07-05T09:14:02.186Z,50.79
2017-07-05T09:16:31.907Z,50.71
2017-07-05T09:19:01.611Z,51.88
2017-07-05T09:21:32.191Z,49.88
2017-07-05T09:24:01.907Z,49.60
2017-07-05T09:26:31.322Z,50.50
2017-07-05T09:29:01.126Z,48.60
2017-07-05T09:31:30.773Z,49.67
2017-07-05T09:34:00.426Z,48.67
2017-07-05T09:36:30.114Z,49.90
2017-07-05T09:38:59.806Z,50.35
2017-07-05T09:41:29.604Z,50.60
2017-07-05T09:43:59.898Z,48.31
2017-07-05T09:46:29.582Z,48.47
2017-07-05T09:48:59.226Z,49.12
2017-07-05T09:51:29.081Z,49.94
2017-07-05T09:53:58.846Z,50.04
2017-07-05T09:56:29.319Z,50.51
2017-07-05T09:58:59.170Z,51.05
2017-07-05T10:01:28.820Z,50.26
2017-07-05T10:03:58.598Z,49.82
2017-07-05T10:06:28.951Z,49.90
2017-07-05T10:08:59.842Z,50.66
2017-07-05T10:11:29.492Z,50.53
2017-07-05T10:13:59.258Z,50.38
2017-07-05T10:16:28.933Z,50.17
2017-07-05T10:19:00.934Z,50.54
2017-07-05T10:21:30.715Z,49.93
2017-07-05T10:24:00.417Z,50.30
2017-07-05T10:26:30.141Z,50.62
2017-07-05T10:28:59.823Z,49.86
2017-07-05T10:31:29.610Z,51.67
2017-07-05T10:33:59.333Z,49.50
2017-07-05T10:36:29.092Z,50.03
2017-07-05T10:38:58.871Z,49.93
2017-07-05T10:41:29.342Z,49.80
2017-07-05T10:43:59.118Z,49.66
2017-07-05T10:46:29.537Z,50.23
2017-07-05T10:48:59.777Z,50.48
2017-07-05T10:51:29.463Z,49.51
2017-07-05T10:53:59.208Z,49.88
2017-07-05T10:56:28.903Z,48.98
2017-07-05T10:58:58.647Z,49.02
2017-07-05T11:01:28.306Z,49.05
2017-07-05T11:03:58.135Z,49.48
2017-07-05T11:06:27.787Z,48.28
2017-07-05T11:08:59.316Z,48.30
2017-07-05T11:11:28.977Z,49.08
2017-07-05T11:13:58.742Z,49.33
2017-07-05T11:16:28.422Z,48.86
2017-07-05T11:18:57.820Z,47.73
2017-07-05T11:21:27.685Z,48.43
2017-07-05T11:23:57.378Z,48.81
2017-07-05T11:26:27.632Z,48.77
2017-07-05T11:28:58.164Z,48.69
2017-07-05T11:31:28.328Z,48.44
2017-07-05T11:33:58.183Z,48.54
2017-07-05T11:36:27.842Z,48.35
2017-07-05T11:38:57.566Z,48.25
2017-07-05T11:41:27.252Z,46.43
2017-07-05T11:43:56.909Z,47.46
2017-07-05T11:46:26.615Z,47.17
2017-07-05T11:48:56.282Z,46.56
2017-07-05T11:51:25.950Z,47.18
2017-07-05T11:53:55.880Z,47.16
2017-07-05T11:56:25.538Z,46.57
2017-07-05T11:58:55.850Z,46.68
2017-07-05T12:01:25.516Z,47.06
2017-07-05T12:03:55.215Z,46.09
2017-07-05T12:06:24.921Z,46.33
2017-07-05T12:08:54.602Z,45.68
2017-07-05T12:11:29.687Z,46.35
2017-07-05T12:13:59.333Z,47.32
2017-07-05T12:16:29.740Z,45.50
2017-07-05T12:18:59.419Z,44.94
2017-07-05T12:21:29.074Z,45.26
2017-07-05T12:23:58.852Z,46.10
2017-07-05T12:26:28.505Z,45.68
2017-07-05T12:28:58.370Z,46.90
2017-07-05T12:31:28.647Z,46.83
2017-07-05T12:33:58.378Z,46.41
2017-07-05T12:36:28.073Z,45.95
2017-07-05T12:38:58.170Z,47.05
2017-07-05T12:41:27.840Z,46.66
2017-07-05T12:43:57.539Z,46.59
2017-07-05T12:46:27.082Z,46.32
2017-07-05T12:48:56.602Z,46.41
2017-07-05T12:51:26.324Z,45.70
2017-07-05T12:53:55.979Z,45.72
2017-07-05T12:56:25.679Z,45.56
2017-07-05T12:58:55.362Z,45.98
2017-07-05T13:01:25.052Z,46.03
2017-07-05T13:03:54.946Z,45.52
2017-07-05T13:06:25.270Z,45.86
2017-07-05T13:08:54.938Z,44.98
2017-07-05T13:11:24.599Z,44.76
2017-07-05T13:13:54.455Z,45.23
2017-07-05T13:16:24.122Z,44.50
2017-07-05T13:18:53.774Z,45.08
2017-07-05T13:21:23.522Z,45.26
2017-07-05T13:23:52.819Z,45.09
2017-07-05T13:26:22.559Z,45.65
2017-07-05T13:28:52.145Z,45.15
2017-07-05T13:31:21.917Z,44.85
2017-07-05T13:33:51.461Z,44.55
2017-07-05T13:36:21.181Z,45.38
2017-07-05T13:38:50.931Z,46.01
2017-07-05T13:41:20.703Z,45.37
2017-07-05T13:43:50.382Z,45.19
2017-07-05T13:46:20.079Z,45.89
2017-07-05T13:48:49.722Z,45.77
2017-07-05T13:51:20.499Z,45.48
2017-07-05T13:53:50.158Z,45.09
2017-07-05T13:56:19.923Z,45.28
2017-07-05T13:58:49.915Z,45.31
2017-07-05T14:01:19.677Z,45.02
2017-07-05T14:03:49.324Z,46.15
2017-07-05T14:06:19.291Z,46.20
2017-07-05T14:08:48.990Z,46.42
2017-07-05T14:11:18.895Z,45.70
2017-07-05T14:13:48.674Z,46.10
2017-07-05T14:16:21.004Z,46.17
2017-07-05T14:18:50.699Z,46.45
2017-07-05T14:21:20.431Z,47.18
2017-07-05T14:23:50.162Z,46.55
2017-07-05T14:26:19.973Z,47.41
2017-07-05T14:28:49.624Z,49.25
2017-07-05T14:31:19.395Z,49.32
2017-07-05T14:33:49.055Z,47.91
2017-07-05T14:36:18.808Z,48.05
2017-07-05T14:38:48.609Z,47.62
2017-07-05T14:41:18.745Z,48.12
2017-07-05T14:43:48.487Z,48.33
2017-07-05T14:46:18.473Z,48.19
2017-07-05T14:48:49.003Z,49.76
2017-07-05T14:51:18.671Z,49.26
2017-07-05T14:53:48.346Z,48.20
2017-07-05T14:56:18.054Z,48.42
2017-07-05T14:58:47.736Z,48.83
2017-07-05T15:01:17.500Z,48.17
2017-07-05T15:03:47.267Z,48.50
2017-07-05T15:06:17.615Z,49.01
2017-07-05T15:08:47.298Z,49.06
2017-07-05T15:11:17.777Z,48.85
2017-07-05T15:13:47.568Z,49.60
2017-07-05T15:16:17.284Z,49.89
2017-07-05T15:18:49.853Z,49.91
2017-07-05T15:21:24.583Z,49.34
2017-07-05T15:23:54.343Z,49.09
2017-07-05T15:26:24.054Z,48.78
2017-07-05T15:28:53.827Z,48.94
2017-07-05T15:31:25.605Z,48.01
2017-07-05T15:33:56.672Z,48.53
2017-07-05T15:36:26.879Z,49.20
2017-07-05T15:38:56.537Z,48.26
2017-07-05T15:41:27.023Z,48.87
2017-07-05T15:43:56.679Z,48.60
2017-07-05T15:46:26.434Z,48.62
2017-07-05T15:48:56.121Z,47.97
2017-07-05T15:51:25.769Z,47.72
2017-07-05T15:53:56.078Z,48.21
2017-07-05T15:56:27.168Z,48.14
2017-07-05T15:58:56.870Z,48.17
2017-07-05T16:01:27.089Z,48.90
2017-07-05T16:03:58.312Z,48.69
2017-07-05T16:06:29.054Z,48.67
2017-07-05T16:08:59.897Z,48.52
2017-07-05T16:11:30.297Z,48.57
2017-07-05T16:14:01.451Z,48.99
2017-07-05T16:16:32.630Z,48.68
2017-07-05T16:19:02.782Z,49.60
2017-07-05T16:21:40.017Z,49.33
2017-07-05T16:24:10.131Z,49.75
2017-07-05T16:26:39.793Z,49.97
2017-07-05T16:29:09.444Z,49.73
2017-07-05T16:31:39.778Z,49.46
2017-07-05T16:34:09.490Z,50.10
2017-07-05T16:36:41.532Z,50.27
2017-07-05T16:39:13.988Z,49.96
2017-07-05T16:41:43.820Z,50.29
2017-07-05T16:44:13.558Z,50.37
2017-07-05T16:46:43.221Z,50.21
2017-07-05T16:49:12.949Z,50.74
2017-07-05T16:51:43.267Z,50.39
2017-07-05T16:54:13.075Z,51.11
2017-07-05T16:56:42.795Z,50.67
2017-07-05T16:59:12.580Z,50.86
2017-07-05T17:01:42.283Z,51.27
2017-07-05T17:04:12.120Z,50.63
2017-07-05T17:06:41.819Z,50.40
2017-07-05T17:09:11.468Z,50.95
2017-07-05T17:11:41.815Z,51.19
2017-07-05T17:14:11.466Z,50.83
2017-07-05T17:16:41.235Z,51.44
2017-07-05T17:19:10.905Z,51.72
2017-07-05T17:21:40.933Z,51.98
2017-07-05T17:24:16.224Z,51.61
2017-07-05T17:26:45.902Z,51.56
2017-07-05T17:29:16.214Z,50.92
2017-07-05T17:31:46.317Z,51.22
2017-07-05T17:34:16.031Z,51.44
2017-07-05T17:36:46.787Z,52.15
2017-07-05T17:39:16.812Z,51.58
2017-07-05T17:41:46.511Z,52.22
2017-07-05T17:44:16.336Z,52.45
2017-07-05T17:46:46.051Z,51.62
2017-07-05T17:49:15.715Z,51.70
2017-07-05T17:51:45.490Z,51.45
2017-07-05T17:54:15.168Z,51.64
2017-07-05T17:56:44.929Z,51.94
2017-07-05T17:59:14.645Z,52.36
2017-07-05T18:01:44.431Z,52.39
2017-07-05T18:04:14.123Z,51.87
2017-07-05T18:06:43.774Z,52.82
2017-07-05T18:09:13.451Z,52.63
2017-07-05T18:11:43.354Z,52.45
2017-07-05T18:14:13.204Z,52.93
2017-07-05T18:16:42.916Z,52.81
2017-07-05T18:19:12.571Z,52.67
2017-07-05T18:21:42.238Z,54.09
2017-07-05T18:24:20.378Z,54.30
2017-07-05T18:27:04.087Z,53.63
2017-07-05T18:29:47.159Z,54.39
2017-07-05T18:32:27.168Z,53.46
2017-07-05T18:35:08.023Z,53.64
2017-07-05T18:37:49.130Z,54.10
2017-07-05T18:40:30.879Z,54.32
2017-07-05T18:43:13.075Z,53.99
2017-07-05T18:45:45.939Z,53.97
2017-07-05T18:48:15.612Z,53.66
2017-07-05T18:50:52.474Z,54.32
2017-07-05T18:53:31.215Z,54.33
2017-07-05T18:56:11.002Z,54.14
2017-07-05T18:58:52.106Z,53.88
2017-07-05T19:01:34.530Z,54.64
2017-07-05T19:04:17.189Z,54.44
2017-07-05T19:06:58.438Z,55.46
2017-07-05T19:09:39.202Z,55.82
2017-07-05T19:12:20.576Z,55.33
2017-07-05T19:15:01.850Z,55.29
2017-07-05T19:17:31.542Z,55.95
2017-07-05T19:20:01.291Z,56.57
2017-07-05T19:22:31.041Z,56.13
2017-07-05T19:25:00.718Z,57.02
2017-07-05T19:27:30.363Z,56.83
2017-07-05T19:30:03.238Z,57.54
2017-07-05T19:32:32.890Z,57.44
2017-07-05T19:35:02.582Z,58.41
2017-07-05T19:37:32.271Z,58.35
2017-07-05T19:40:02.085Z,58.91
2017-07-05T19:42:31.802Z,59.23
2017-07-05T19:45:01.547Z,60.32
2017-07-05T19:47:31.222Z,60.52
2017-07-05T19:50:00.998Z,60.33
2017-07-05T19:52:31.412Z,60.35
2017-07-05T19:55:01.113Z,60.89
2017-07-05T19:57:30.818Z,60.78
2017-07-05T20:00:00.506Z,60.86
2017-07-05T20:02:30.190Z,60.34
2017-07-05T20:05:00.594Z,60.74
2017-07-05T20:07:30.304Z,61.34
2017-07-05T20:10:00.076Z,61.37
2017-07-05T20:12:31.734Z,61.51
2017-07-05T20:15:02.002Z,60.93
2017-07-05T20:17:31.834Z,60.34
2017-07-05T20:20:01.485Z,61.18
2017-07-05T20:22:31.202Z,60.97
2017-07-05T20:25:00.959Z,61.04
2017-07-05T20:27:30.622Z,61.34
2017-07-05T20:30:01.091Z,61.29
2017-07-05T20:32:30.779Z,61.08
2017-07-05T20:35:00.699Z,61.82
2017-07-05T20:37:30.559Z,61.87
2017-07-05T20:40:00.349Z,61.58
2017-07-05T20:42:31.445Z,62.18
2017-07-05T20:45:02.600Z,61.40
2017-07-05T20:47:32.467Z,61.30
2017-07-05T20:50:02.277Z,61.88
2017-07-05T20:52:31.995Z,62.55
2017-07-05T20:55:02.118Z,62.56
2017-07-05T20:57:31.930Z,62.94
2017-07-05T21:00:01.753Z,63.20
2017-07-05T21:02:31.566Z,62.90
2017-07-05T21:05:01.381Z,63.11
2017-07-05T21:07:31.816Z,63.87
2017-07-05T21:10:01.629Z,63.90
2017-07-05T21:12:31.448Z,63.30
2017-07-05T21:15:01.829Z,63.97
2017-07-05T21:17:34.554Z,63.36
2017-07-05T21:20:04.986Z,64.89
2017-07-05T21:22:34.942Z,63.64
2017-07-05T21:25:04.714Z,63.75
2017-07-05T21:27:34.436Z,63.87
2017-07-05T21:30:04.533Z,63.46
2017-07-05T21:32:34.464Z,64.22
2017-07-05T21:35:04.239Z,64.38
2017-07-05T21:37:34.098Z,64.00
2017-07-05T21:40:03.459Z,65.08
2017-07-05T21:42:33.811Z,65.36
2017-07-05T21:45:03.653Z,65.79
2017-07-05T21:47:33.996Z,67.04
2017-07-05T21:50:04.522Z,66.94
2017-07-05T21:52:34.219Z,67.55
2017-07-05T21:55:06.173Z,67.98
2017-07-05T21:57:36.012Z,68.07
2017-07-05T22:00:06.036Z,67.54
2017-07-05T22:02:36.011Z,67.60
2017-07-05T22:05:05.861Z,68.07
2017-07-05T22:07:36.401Z,68.65
2017-07-05T22:10:06.093Z,69.50
2017-07-05T22:12:36.444Z,69.77
2017-07-05T22:15:12.638Z,69.15
2017-07-05T22:17:42.832Z,69.26
2017-07-05T22:20:12.746Z,69.35
2017-07-05T22:22:42.139Z,68.88
2017-07-05T22:25:11.856Z,70.19
2017-07-05T22:27:41.707Z,70.02
2017-07-05T22:30:12.111Z,70.18
2017-07-05T22:32:41.926Z,70.25
2017-07-05T22:35:11.436Z,70.59
2017-07-05T22:37:41.203Z,70.57
2017-07-05T22:40:10.953Z,70.65
2017-07-05T22:42:40.679Z,70.94
2017-07-05T22:45:10.453Z,71.36
2017-07-05T22:47:39.881Z,71.27
2017-07-05T22:50:10.283Z,70.65
2017-07-05T22:52:40.752Z,70.27
2017-07-05T22:55:10.556Z,70.55
2017-07-05T22:57:40.496Z,71.05
2017-07-05T23:00:10.427Z,71.94
2017-07-05T23:02:40.222Z,72.24
2017-07-05T23:05:10.040Z,72.12
2017-07-05T23:07:39.748Z,71.90
2017-07-05T23:10:09.681Z,72.46
2017-07-05T23:12:40.388Z,72.34
2017-07-05T23:15:10.883Z,72.49
2017-07-05T23:17:40.756Z,72.03
2017-07-05T23:20:10.572Z,72.68
2017-07-05T23:22:40.288Z,73.06
2017-07-05T23:25:09.963Z,73.01
2017-07-05T23:27:39.727Z,72.86
2017-07-05T23:30:09.530Z,72.47
2017-07-05T23:32:39.283Z,72.24
2017-07-05T23:35:08.938Z,73.14
2017-07-05T23:37:38.590Z,74.19
2017-07-05T23:40:08.280Z,74.12
2017-07-05T23:42:37.994Z,73.58
2017-07-05T23:45:08.358Z,73.88
2017-07-05T23:47:38.106Z,73.27
2017-07-05T23:50:07.749Z,73.61
2017-07-05T23:52:37.463Z,74.05
2017-07-05T23:55:07.280Z,73.44
2017-07-05T23:57:37.004Z,73.75
